sensor_id;sensor_type;location;lat;lon;timestamp;pressure;altitude;pressure_sealevel;temperature;humidity
72798;BME280;61084;55.816;37.036;2023-08-06T00:00:11;99771.31;;;21.28;61.85
72798;BME280;61084;55.816;37.036;2023-08-06T00:02:37;99772.44;;;21.26;61.79
72798;BME280;61084;55.816;37.036;2023-08-06T00:05:03;99762.88;;;21.23;61.93
72798;BME280;61084;55.816;37.036;2023-08-06T00:07:31;99769.31;;;21.21;61.88
72798;BME280;61084;55.816;37.036;2023-08-06T00:09:57;99771.19;;;21.20;61.87
72798;BME280;61084;55.816;37.036;2023-08-06T00:12:23;99778.47;;;21.18;62.13
72798;BME280;61084;55.816;37.036;2023-08-06T00:14:53;99769.88;;;21.15;62.51
72798;BME280;61084;55.816;37.036;2023-08-06T00:17:19;99780.56;;;21.15;62.10
72798;BME280;61084;55.816;37.036;2023-08-06T00:19:46;99780.00;;;21.11;62.36
72798;BME280;61084;55.816;37.036;2023-08-06T00:22:12;99786.31;;;21.10;62.26
72798;BME280;61084;55.816;37.036;2023-08-06T00:24:38;99780.28;;;21.08;62.51
72798;BME280;61084;55.816;37.036;2023-08-06T00:27:04;99782.94;;;21.08;62.49
72798;BME280;61084;55.816;37.036;2023-08-06T00:29:30;99781.53;;;21.04;62.28
72798;BME280;61084;55.816;37.036;2023-08-06T00:31:56;99778.72;;;21.06;62.40
72798;BME280;61084;55.816;37.036;2023-08-06T00:34:21;99777.19;;;21.03;62.49
72798;BME280;61084;55.816;37.036;2023-08-06T00:36:47;99786.28;;;21.00;62.41
72798;BME280;61084;55.816;37.036;2023-08-06T00:39:13;99788.09;;;21.00;62.52
72798;BME280;61084;55.816;37.036;2023-08-06T00:41:39;99784.72;;;20.98;62.69
72798;BME280;61084;55.816;37.036;2023-08-06T00:44:05;99788.38;;;20.97;62.64
72798;BME280;61084;55.816;37.036;2023-08-06T00:46:33;99785.84;;;20.95;62.61
72798;BME280;61084;55.816;37.036;2023-08-06T00:48:59;99785.13;;;20.93;62.80
72798;BME280;61084;55.816;37.036;2023-08-06T00:51:25;99786.97;;;20.93;62.77
72798;BME280;61084;55.816;37.036;2023-08-06T00:53:52;99786.25;;;20.91;62.67
72798;BME280;61084;55.816;37.036;2023-08-06T00:56:18;99787.38;;;20.88;63.52
72798;BME280;61084;55.816;37.036;2023-08-06T00:58:45;99788.38;;;20.87;63.02
72798;BME280;61084;55.816;37.036;2023-08-06T01:01:11;99783.13;;;20.86;62.77
72798;BME280;61084;55.816;37.036;2023-08-06T01:03:37;99782.59;;;20.82;62.96
72798;BME280;61084;55.816;37.036;2023-08-06T01:06:03;99779.91;;;20.82;63.00
72798;BME280;61084;55.816;37.036;2023-08-06T01:13:47;99782.03;;;20.79;63.02
72798;BME280;61084;55.816;37.036;2023-08-06T01:16:19;99777.66;;;20.78;63.17
72798;BME280;61084;55.816;37.036;2023-08-06T01:18:49;99770.91;;;20.74;63.40
72798;BME280;61084;55.816;37.036;2023-08-06T01:21:16;99776.25;;;20.74;63.04
72798;BME280;61084;55.816;37.036;2023-08-06T01:23:42;99779.06;;;20.72;63.16
72798;BME280;61084;55.816;37.036;2023-08-06T01:26:26;99773.97;;;20.69;64.10
72798;BME280;61084;55.816;37.036;2023-08-06T01:29:10;99785.63;;;20.68;64.31
72798;BME280;61084;55.816;37.036;2023-08-06T01:31:38;99780.41;;;20.67;63.27
72798;BME280;61084;55.816;37.036;2023-08-06T01:34:09;99783.22;;;20.65;63.81
72798;BME280;61084;55.816;37.036;2023-08-06T01:36:36;99793.19;;;20.63;63.50
72798;BME280;61084;55.816;37.036;2023-08-06T01:39:04;99795.00;;;20.63;63.71
72798;BME280;61084;55.816;37.036;2023-08-06T01:41:30;99797.69;;;20.63;63.64
72798;BME280;61084;55.816;37.036;2023-08-06T01:43:57;99796.00;;;20.62;63.63
72798;BME280;61084;55.816;37.036;2023-08-06T01:46:23;99794.16;;;20.62;63.51
72798;BME280;61084;55.816;37.036;2023-08-06T01:48:49;99803.16;;;20.61;63.65
72798;BME280;61084;55.816;37.036;2023-08-06T01:51:15;99806.78;;;20.60;63.65
72798;BME280;61084;55.816;37.036;2023-08-06T01:53:41;99816.50;;;20.61;63.49
72798;BME280;61084;55.816;37.036;2023-08-06T01:56:06;99808.50;;;20.61;63.73
72798;BME280;61084;55.816;37.036;2023-08-06T01:58:32;99807.50;;;20.62;63.73
72798;BME280;61084;55.816;37.036;2023-08-06T02:00:59;99802.47;;;20.59;63.59
72798;BME280;61084;55.816;37.036;2023-08-06T02:03:24;99804.13;;;20.60;63.75
72798;BME280;61084;55.816;37.036;2023-08-06T02:05:50;99813.13;;;20.59;63.64
72798;BME280;61084;55.816;37.036;2023-08-06T02:08:16;99807.78;;;20.59;63.50
72798;BME280;61084;55.816;37.036;2023-08-06T02:10:42;99814.78;;;20.60;63.73
72798;BME280;61084;55.816;37.036;2023-08-06T02:13:08;99809.47;;;20.60;63.72
72798;BME280;61084;55.816;37.036;2023-08-06T02:15:34;99819.03;;;20.63;63.76
72798;BME280;61084;55.816;37.036;2023-08-06T02:17:59;99812.03;;;20.62;63.83
72798;BME280;61084;55.816;37.036;2023-08-06T02:20:58;99822.53;;;20.63;64.61
72798;BME280;61084;55.816;37.036;2023-08-06T02:23:25;99811.88;;;20.63;63.90
72798;BME280;61084;55.816;37.036;2023-08-06T02:26:01;99817.06;;;20.65;64.80
72798;BME280;61084;55.816;37.036;2023-08-06T02:28:28;99819.88;;;20.63;64.39
72798;BME280;61084;55.816;37.036;2023-08-06T02:30:54;99818.06;;;20.64;64.54
72798;BME280;61084;55.816;37.036;2023-08-06T02:33:20;99817.91;;;20.65;64.55
72798;BME280;61084;55.816;37.036;2023-08-06T02:35:48;99815.09;;;20.67;64.38
72798;BME280;61084;55.816;37.036;2023-08-06T02:38:14;99829.16;;;20.69;64.45
72798;BME280;61084;55.816;37.036;2023-08-06T02:40:47;99816.66;;;20.69;64.75
72798;BME280;61084;55.816;37.036;2023-08-06T02:43:13;99818.22;;;20.72;64.41
72798;BME280;61084;55.816;37.036;2023-08-06T02:45:40;99821.44;;;20.75;64.52
72798;BME280;61084;55.816;37.036;2023-08-06T02:48:06;99822.88;;;20.79;64.51
72798;BME280;61084;55.816;37.036;2023-08-06T02:50:38;99812.09;;;20.81;64.70
72798;BME280;61084;55.816;37.036;2023-08-06T02:53:06;99817.84;;;20.86;64.69
72798;BME280;61084;55.816;37.036;2023-08-06T02:55:32;99811.53;;;20.87;64.81
72798;BME280;61084;55.816;37.036;2023-08-06T02:58:00;99808.16;;;20.94;64.79
72798;BME280;61084;55.816;37.036;2023-08-06T03:00:29;99806.94;;;20.98;64.67
72798;BME280;61084;55.816;37.036;2023-08-06T03:02:56;99808.22;;;21.04;64.69
72798;BME280;61084;55.816;37.036;2023-08-06T03:05:29;99810.09;;;21.13;64.74
72798;BME280;61084;55.816;37.036;2023-08-06T03:07:54;99811.34;;;21.19;64.81
72798;BME280;61084;55.816;37.036;2023-08-06T03:10:24;99805.31;;;21.26;64.64
72798;BME280;61084;55.816;37.036;2023-08-06T03:12:53;99803.66;;;21.35;64.61
72798;BME280;61084;55.816;37.036;2023-08-06T03:15:19;99808.28;;;21.42;64.75
72798;BME280;61084;55.816;37.036;2023-08-06T03:17:46;99802.53;;;21.47;64.91
72798;BME280;61084;55.816;37.036;2023-08-06T03:20:13;99805.47;;;21.53;65.04
72798;BME280;61084;55.816;37.036;2023-08-06T03:22:40;99808.44;;;21.60;65.12
72798;BME280;61084;55.816;37.036;2023-08-06T03:25:09;99807.75;;;21.67;65.10
72798;BME280;61084;55.816;37.036;2023-08-06T03:27:36;99806.75;;;21.78;65.14
72798;BME280;61084;55.816;37.036;2023-08-06T03:30:03;99813.09;;;21.87;64.88
72798;BME280;61084;55.816;37.036;2023-08-06T03:32:32;99807.75;;;21.96;64.94
72798;BME280;61084;55.816;37.036;2023-08-06T03:34:59;99814.91;;;22.05;64.84
72798;BME280;61084;55.816;37.036;2023-08-06T03:37:30;99814.88;;;22.15;64.94
72798;BME280;61084;55.816;37.036;2023-08-06T03:39:56;99811.34;;;22.24;64.96
72798;BME280;61084;55.816;37.036;2023-08-06T03:42:22;99807.97;;;22.31;64.96
72798;BME280;61084;55.816;37.036;2023-08-06T03:44:48;99816.09;;;22.39;64.83
72798;BME280;61084;55.816;37.036;2023-08-06T03:47:14;99809.72;;;22.50;64.54
72798;BME280;61084;55.816;37.036;2023-08-06T03:49:40;99813.22;;;22.60;64.48
72798;BME280;61084;55.816;37.036;2023-08-06T03:52:07;99813.88;;;22.72;64.47
72798;BME280;61084;55.816;37.036;2023-08-06T03:54:33;99812.84;;;22.82;64.27
72798;BME280;61084;55.816;37.036;2023-08-06T03:56:59;99810.13;;;22.92;64.02
72798;BME280;61084;55.816;37.036;2023-08-06T03:59:25;99806.41;;;23.02;63.74
72798;BME280;61084;55.816;37.036;2023-08-06T04:01:51;99809.16;;;23.10;63.57
72798;BME280;61084;55.816;37.036;2023-08-06T04:04:17;99812.63;;;23.20;63.48
72798;BME280;61084;55.816;37.036;2023-08-06T04:06:43;99810.19;;;23.27;63.46
72798;BME280;61084;55.816;37.036;2023-08-06T04:09:08;99806.47;;;23.38;63.00
72798;BME280;61084;55.816;37.036;2023-08-06T04:11:34;99809.06;;;23.47;63.09
72798;BME280;61084;55.816;37.036;2023-08-06T04:14:02;99804.50;;;23.57;62.87
72798;BME280;61084;55.816;37.036;2023-08-06T04:16:29;99805.41;;;23.66;62.75
72798;BME280;61084;55.816;37.036;2023-08-06T04:18:55;99808.84;;;23.76;62.98
72798;BME280;61084;55.816;37.036;2023-08-06T04:21:21;99805.91;;;23.87;62.60
72798;BME280;61084;55.816;37.036;2023-08-06T04:23:47;99809.03;;;24.00;62.29
72798;BME280;61084;55.816;37.036;2023-08-06T04:26:14;99801.75;;;24.10;61.98
72798;BME280;61084;55.816;37.036;2023-08-06T04:28:40;99810.41;;;24.22;62.06
72798;BME280;61084;55.816;37.036;2023-08-06T04:31:06;99810.97;;;24.33;62.14
72798;BME280;61084;55.816;37.036;2023-08-06T04:33:33;99810.84;;;24.43;61.47
72798;BME280;61084;55.816;37.036;2023-08-06T04:36:03;99803.38;;;24.54;61.36
72798;BME280;61084;55.816;37.036;2023-08-06T04:38:30;99804.75;;;24.66;61.13
72798;BME280;61084;55.816;37.036;2023-08-06T04:40:58;99807.38;;;24.76;61.05
72798;BME280;61084;55.816;37.036;2023-08-06T04:43:24;99807.94;;;24.88;60.65
72798;BME280;61084;55.816;37.036;2023-08-06T04:45:52;99805.09;;;24.97;60.89
72798;BME280;61084;55.816;37.036;2023-08-06T04:48:19;99806.63;;;25.08;60.81
72798;BME280;61084;55.816;37.036;2023-08-06T04:50:45;99811.72;;;25.19;60.23
72798;BME280;61084;55.816;37.036;2023-08-06T04:53:11;99808.59;;;25.31;60.23
72798;BME280;61084;55.816;37.036;2023-08-06T04:55:37;99806.44;;;25.43;60.28
72798;BME280;61084;55.816;37.036;2023-08-06T04:58:03;99816.03;;;25.54;59.72
72798;BME280;61084;55.816;37.036;2023-08-06T05:00:29;99805.28;;;25.62;59.51
72798;BME280;61084;55.816;37.036;2023-08-06T05:02:55;99804.97;;;25.73;59.57
72798;BME280;61084;55.816;37.036;2023-08-06T05:05:20;99804.97;;;25.81;59.58
72798;BME280;61084;55.816;37.036;2023-08-06T05:07:48;99811.00;;;25.91;59.61
72798;BME280;61084;55.816;37.036;2023-08-06T05:10:13;99810.66;;;26.02;59.02
72798;BME280;61084;55.816;37.036;2023-08-06T05:12:39;99809.19;;;26.15;59.21
72798;BME280;61084;55.816;37.036;2023-08-06T05:15:05;99801.59;;;26.27;58.69
72798;BME280;61084;55.816;37.036;2023-08-06T05:17:31;99804.94;;;26.37;58.66
72798;BME280;61084;55.816;37.036;2023-08-06T05:19:57;99796.66;;;26.47;58.56
72798;BME280;61084;55.816;37.036;2023-08-06T05:22:23;99800.00;;;26.57;58.19
72798;BME280;61084;55.816;37.036;2023-08-06T05:24:49;99801.47;;;26.67;58.03
72798;BME280;61084;55.816;37.036;2023-08-06T05:27:15;99798.63;;;26.77;57.59
72798;BME280;61084;55.816;37.036;2023-08-06T05:29:41;99793.84;;;26.87;57.32
72798;BME280;61084;55.816;37.036;2023-08-06T05:32:06;99795.13;;;26.99;57.37
72798;BME280;61084;55.816;37.036;2023-08-06T05:34:32;99794.56;;;27.12;57.55
72798;BME280;61084;55.816;37.036;2023-08-06T05:36:58;99791.09;;;27.26;57.00
72798;BME280;61084;55.816;37.036;2023-08-06T05:39:23;99791.78;;;27.36;56.77
72798;BME280;61084;55.816;37.036;2023-08-06T05:41:49;99790.31;;;27.48;56.79
72798;BME280;61084;55.816;37.036;2023-08-06T05:44:16;99787.69;;;27.62;56.62
72798;BME280;61084;55.816;37.036;2023-08-06T05:46:41;99785.75;;;27.71;55.88
72798;BME280;61084;55.816;37.036;2023-08-06T05:49:07;99787.88;;;27.84;56.25
72798;BME280;61084;55.816;37.036;2023-08-06T05:51:33;99785.94;;;27.92;55.53
72798;BME280;61084;55.816;37.036;2023-08-06T05:53:58;99795.47;;;28.03;55.82
72798;BME280;61084;55.816;37.036;2023-08-06T05:56:24;99790.47;;;28.14;55.55
72798;BME280;61084;55.816;37.036;2023-08-06T05:58:50;99790.22;;;28.24;55.06
72798;BME280;61084;55.816;37.036;2023-08-06T06:01:18;99785.84;;;28.38;54.86
72798;BME280;61084;55.816;37.036;2023-08-06T06:03:44;99788.94;;;28.49;54.93
72798;BME280;61084;55.816;37.036;2023-08-06T06:06:10;99785.97;;;28.59;54.35
72798;BME280;61084;55.816;37.036;2023-08-06T06:08:36;99781.09;;;28.69;54.57
72798;BME280;61084;55.816;37.036;2023-08-06T06:11:02;99772.53;;;28.80;54.40
72798;BME280;61084;55.816;37.036;2023-08-06T06:13:28;99777.28;;;28.92;54.54
72798;BME280;61084;55.816;37.036;2023-08-06T06:15:54;99766.16;;;29.02;53.86
72798;BME280;61084;55.816;37.036;2023-08-06T06:18:19;99762.31;;;29.11;53.90
72798;BME280;61084;55.816;37.036;2023-08-06T06:20:45;99778.06;;;29.22;53.74
72798;BME280;61084;55.816;37.036;2023-08-06T06:23:11;99773.38;;;29.31;53.63
72798;BME280;61084;55.816;37.036;2023-08-06T06:25:41;99777.84;;;29.38;53.12
72798;BME280;61084;55.816;37.036;2023-08-06T06:28:07;99779.84;;;29.51;53.24
72798;BME280;61084;55.816;37.036;2023-08-06T06:30:32;99772.44;;;29.59;53.03
72798;BME280;61084;55.816;37.036;2023-08-06T06:32:58;99773.22;;;29.74;52.89
72798;BME280;61084;55.816;37.036;2023-08-06T06:35:24;99777.72;;;29.89;52.99
72798;BME280;61084;55.816;37.036;2023-08-06T06:37:50;99770.28;;;29.97;52.92
72798;BME280;61084;55.816;37.036;2023-08-06T06:40:16;99768.53;;;30.11;52.51
72798;BME280;61084;55.816;37.036;2023-08-06T06:42:42;99760.25;;;30.19;52.21
72798;BME280;61084;55.816;37.036;2023-08-06T06:45:09;99769.53;;;30.31;51.98
72798;BME280;61084;55.816;37.036;2023-08-06T06:47:35;99769.63;;;30.44;51.64
72798;BME280;61084;55.816;37.036;2023-08-06T06:50:01;99771.56;;;30.57;51.84
72798;BME280;61084;55.816;37.036;2023-08-06T06:52:27;99763.91;;;30.67;51.37
72798;BME280;61084;55.816;37.036;2023-08-06T06:54:53;99757.91;;;30.78;51.04
72798;BME280;61084;55.816;37.036;2023-08-06T06:57:18;99766.53;;;30.88;51.50
72798;BME280;61084;55.816;37.036;2023-08-06T06:59:44;99762.41;;;30.98;50.78
72798;BME280;61084;55.816;37.036;2023-08-06T07:02:10;99760.75;;;31.04;50.04
72798;BME280;61084;55.816;37.036;2023-08-06T07:04:36;99761.81;;;31.09;50.19
72798;BME280;61084;55.816;37.036;2023-08-06T07:07:02;99764.97;;;31.19;50.34
72798;BME280;61084;55.816;37.036;2023-08-06T07:09:27;99760.44;;;31.33;49.55
72798;BME280;61084;55.816;37.036;2023-08-06T07:11:53;99764.00;;;31.40;49.33
72798;BME280;61084;55.816;37.036;2023-08-06T07:14:19;99763.59;;;31.43;48.91
72798;BME280;61084;55.816;37.036;2023-08-06T07:16:45;99758.81;;;31.52;49.03
72798;BME280;61084;55.816;37.036;2023-08-06T07:19:11;99751.97;;;31.62;49.13
72798;BME280;61084;55.816;37.036;2023-08-06T07:21:36;99760.53;;;31.72;49.06
72798;BME280;61084;55.816;37.036;2023-08-06T07:24:02;99752.59;;;31.84;48.48
72798;BME280;61084;55.816;37.036;2023-08-06T07:26:28;99755.09;;;31.92;48.80
72798;BME280;61084;55.816;37.036;2023-08-06T07:28:54;99749.06;;;32.03;47.20
72798;BME280;61084;55.816;37.036;2023-08-06T07:31:20;99753.44;;;32.11;48.22
72798;BME280;61084;55.816;37.036;2023-08-06T07:33:46;99753.00;;;32.14;47.95
72798;BME280;61084;55.816;37.036;2023-08-06T07:36:13;99735.00;;;32.19;47.22
72798;BME280;61084;55.816;37.036;2023-08-06T07:38:40;99745.25;;;32.30;47.00
72798;BME280;61084;55.816;37.036;2023-08-06T07:41:06;99746.91;;;32.38;47.35
72798;BME280;61084;55.816;37.036;2023-08-06T07:43:32;99746.47;;;32.47;47.17
72798;BME280;61084;55.816;37.036;2023-08-06T07:46:00;99746.47;;;32.54;46.20
72798;BME280;61084;55.816;37.036;2023-08-06T07:48:29;99747.09;;;32.62;46.52
72798;BME280;61084;55.816;37.036;2023-08-06T07:50:55;99743.69;;;32.67;46.22
72798;BME280;61084;55.816;37.036;2023-08-06T07:53:21;99737.44;;;32.66;45.46
72798;BME280;61084;55.816;37.036;2023-08-06T07:55:51;99735.53;;;32.67;45.72
72798;BME280;61084;55.816;37.036;2023-08-06T07:58:18;99735.34;;;32.68;45.60
72798;BME280;61084;55.816;37.036;2023-08-06T08:00:45;99725.69;;;32.79;46.12
72798;BME280;61084;55.816;37.036;2023-08-06T08:03:12;99728.38;;;32.86;45.58
72798;BME280;61084;55.816;37.036;2023-08-06T08:05:42;99725.84;;;32.91;45.28
72798;BME280;61084;55.816;37.036;2023-08-06T08:08:08;99728.97;;;32.88;45.06
72798;BME280;61084;55.816;37.036;2023-08-06T08:10:35;99730.44;;;32.90;44.83
72798;BME280;61084;55.816;37.036;2023-08-06T08:13:02;99720.59;;;32.89;44.17
72798;BME280;61084;55.816;37.036;2023-08-06T08:15:29;99727.91;;;32.89;44.35
72798;BME280;61084;55.816;37.036;2023-08-06T08:17:55;99725.38;;;32.94;44.67
72798;BME280;61084;55.816;37.036;2023-08-06T08:20:22;99713.47;;;32.95;44.38
72798;BME280;61084;55.816;37.036;2023-08-06T08:22:48;99717.00;;;33.02;44.34
72798;BME280;61084;55.816;37.036;2023-08-06T08:25:15;99721.59;;;33.08;43.70
72798;BME280;61084;55.816;37.036;2023-08-06T08:27:41;99721.13;;;33.11;44.54
72798;BME280;61084;55.816;37.036;2023-08-06T08:30:07;99716.50;;;33.18;44.11
72798;BME280;61084;55.816;37.036;2023-08-06T08:32:33;99716.69;;;33.23;44.05
72798;BME280;61084;55.816;37.036;2023-08-06T08:34:59;99719.13;;;33.31;44.05
72798;BME280;61084;55.816;37.036;2023-08-06T08:37:25;99708.81;;;33.39;44.27
72798;BME280;61084;55.816;37.036;2023-08-06T08:39:51;99700.38;;;33.47;44.07
72798;BME280;61084;55.816;37.036;2023-08-06T08:42:18;99705.19;;;33.52;43.77
72798;BME280;61084;55.816;37.036;2023-08-06T08:44:45;99704.97;;;33.54;43.72
72798;BME280;61084;55.816;37.036;2023-08-06T08:47:11;99703.06;;;33.54;43.78
72798;BME280;61084;55.816;37.036;2023-08-06T08:49:38;99705.31;;;33.64;43.08
72798;BME280;61084;55.816;37.036;2023-08-06T08:52:05;99711.13;;;33.67;42.82
72798;BME280;61084;55.816;37.036;2023-08-06T08:54:32;99703.19;;;33.66;43.33
72798;BME280;61084;55.816;37.036;2023-08-06T08:56:59;99711.97;;;33.68;43.02
72798;BME280;61084;55.816;37.036;2023-08-06T08:59:26;99713.19;;;33.72;43.30
72798;BME280;61084;55.816;37.036;2023-08-06T09:01:53;99707.31;;;33.75;43.18
72798;BME280;61084;55.816;37.036;2023-08-06T09:04:20;99706.19;;;33.82;43.46
72798;BME280;61084;55.816;37.036;2023-08-06T09:06:50;99701.13;;;33.86;42.53
72798;BME280;61084;55.816;37.036;2023-08-06T09:09:28;99700.78;;;34.00;41.89
72798;BME280;61084;55.816;37.036;2023-08-06T09:12:00;99701.81;;;34.06;42.18
72798;BME280;61084;55.816;37.036;2023-08-06T09:14:27;99692.50;;;34.13;42.19
72798;BME280;61084;55.816;37.036;2023-08-06T09:16:54;99694.13;;;34.21;41.51
72798;BME280;61084;55.816;37.036;2023-08-06T09:19:20;99701.44;;;34.21;42.43
72798;BME280;61084;55.816;37.036;2023-08-06T09:21:46;99697.22;;;34.25;42.19
72798;BME280;61084;55.816;37.036;2023-08-06T09:24:15;99698.66;;;34.27;42.17
72798;BME280;61084;55.816;37.036;2023-08-06T09:26:43;99692.28;;;34.33;41.15
72798;BME280;61084;55.816;37.036;2023-08-06T09:29:10;99701.31;;;34.34;41.77
72798;BME280;61084;55.816;37.036;2023-08-06T09:31:45;99686.16;;;34.38;41.57
72798;BME280;61084;55.816;37.036;2023-08-06T09:34:18;99686.91;;;34.45;41.85
72798;BME280;61084;55.816;37.036;2023-08-06T09:36:47;99687.84;;;34.57;41.97
72798;BME280;61084;55.816;37.036;2023-08-06T09:39:17;99691.78;;;34.61;41.31
72798;BME280;61084;55.816;37.036;2023-08-06T09:41:44;99688.16;;;34.67;41.46
72798;BME280;61084;55.816;37.036;2023-08-06T09:44:24;99693.97;;;34.70;41.20
72798;BME280;61084;55.816;37.036;2023-08-06T09:46:57;99679.41;;;34.76;40.52
72798;BME280;61084;55.816;37.036;2023-08-06T09:51:59;99672.28;;;34.75;41.31
72798;BME280;61084;55.816;37.036;2023-08-06T09:54:26;99669.69;;;34.80;41.37
72798;BME280;61084;55.816;37.036;2023-08-06T09:56:54;99671.63;;;34.92;41.48
72798;BME280;61084;55.816;37.036;2023-08-06T09:59:20;99662.50;;;34.98;41.09
72798;BME280;61084;55.816;37.036;2023-08-06T10:01:47;99656.00;;;34.99;41.25
72798;BME280;61084;55.816;37.036;2023-08-06T10:04:14;99659.56;;;34.99;40.74
72798;BME280;61084;55.816;37.036;2023-08-06T10:06:43;99658.22;;;34.90;40.85
72798;BME280;61084;55.816;37.036;2023-08-06T10:09:11;99645.78;;;34.94;40.63
72798;BME280;61084;55.816;37.036;2023-08-06T10:11:38;99642.53;;;35.04;40.93
72798;BME280;61084;55.816;37.036;2023-08-06T10:14:26;99652.63;;;35.03;39.99
72798;BME280;61084;55.816;37.036;2023-08-06T10:16:54;99635.53;;;35.08;40.51
72798;BME280;61084;55.816;37.036;2023-08-06T10:19:22;99640.50;;;35.11;39.71
72798;BME280;61084;55.816;37.036;2023-08-06T10:24:52;99639.00;;;35.15;40.03
72798;BME280;61084;55.816;37.036;2023-08-06T10:27:28;99632.81;;;35.19;39.86
72798;BME280;61084;55.816;37.036;2023-08-06T10:29:55;99626.19;;;35.27;40.27
72798;BME280;61084;55.816;37.036;2023-08-06T10:32:21;99628.81;;;35.33;40.21
72798;BME280;61084;55.816;37.036;2023-08-06T10:34:58;99622.06;;;35.36;39.23
72798;BME280;61084;55.816;37.036;2023-08-06T10:37:35;99620.75;;;35.38;39.21
72798;BME280;61084;55.816;37.036;2023-08-06T10:40:01;99614.22;;;35.39;39.90
72798;BME280;61084;55.816;37.036;2023-08-06T10:42:31;99619.81;;;35.44;39.60
72798;BME280;61084;55.816;37.036;2023-08-06T10:45:17;99611.88;;;35.54;39.19
72798;BME280;61084;55.816;37.036;2023-08-06T10:47:43;99614.38;;;35.68;39.88
72798;BME280;61084;55.816;37.036;2023-08-06T10:50:17;99622.56;;;35.68;38.72
72798;BME280;61084;55.816;37.036;2023-08-06T10:52:44;99615.34;;;35.62;38.79
72798;BME280;61084;55.816;37.036;2023-08-06T10:55:10;99623.28;;;35.63;39.49
72798;BME280;61084;55.816;37.036;2023-08-06T10:57:37;99616.03;;;35.57;39.43
72798;BME280;61084;55.816;37.036;2023-08-06T11:00:08;99610.00;;;35.55;38.70
72798;BME280;61084;55.816;37.036;2023-08-06T11:02:35;99619.25;;;35.66;38.81
72798;BME280;61084;55.816;37.036;2023-08-06T11:05:08;99625.78;;;35.76;38.73
72798;BME280;61084;55.816;37.036;2023-08-06T11:07:35;99619.13;;;35.84;38.99
72798;BME280;61084;55.816;37.036;2023-08-06T11:10:09;99615.09;;;35.86;38.03
72798;BME280;61084;55.816;37.036;2023-08-06T11:12:36;99614.97;;;35.93;38.78
72798;BME280;61084;55.816;37.036;2023-08-06T11:15:05;99612.22;;;35.93;37.92
72798;BME280;61084;55.816;37.036;2023-08-06T11:17:34;99615.56;;;35.95;38.51
72798;BME280;61084;55.816;37.036;2023-08-06T11:20:02;99608.09;;;36.02;37.34
72798;BME280;61084;55.816;37.036;2023-08-06T11:22:32;99610.72;;;35.97;38.45
72798;BME280;61084;55.816;37.036;2023-08-06T11:24:58;99610.72;;;35.97;39.07
72798;BME280;61084;55.816;37.036;2023-08-06T11:27:28;99611.19;;;36.05;39.02
72798;BME280;61084;55.816;37.036;2023-08-06T11:29:55;99609.94;;;36.13;38.70
72798;BME280;61084;55.816;37.036;2023-08-06T11:32:21;99612.22;;;36.16;39.23
72798;BME280;61084;55.816;37.036;2023-08-06T11:34:47;99600.09;;;36.12;38.24
72798;BME280;61084;55.816;37.036;2023-08-06T11:37:13;99602.84;;;36.00;38.42
72798;BME280;61084;55.816;37.036;2023-08-06T11:39:46;99605.69;;;35.94;38.34
72798;BME280;61084;55.816;37.036;2023-08-06T11:42:12;99606.53;;;35.94;38.51
72798;BME280;61084;55.816;37.036;2023-08-06T11:44:40;99601.88;;;35.95;38.55
72798;BME280;61084;55.816;37.036;2023-08-06T11:47:17;99598.69;;;35.98;38.14
72798;BME280;61084;55.816;37.036;2023-08-06T11:49:48;99594.31;;;36.08;37.76
72798;BME280;61084;55.816;37.036;2023-08-06T11:52:20;99592.09;;;36.22;37.55
72798;BME280;61084;55.816;37.036;2023-08-06T11:54:47;99585.19;;;36.31;38.37
72798;BME280;61084;55.816;37.036;2023-08-06T11:57:15;99590.03;;;36.41;37.39
72798;BME280;61084;55.816;37.036;2023-08-06T11:59:41;99593.97;;;36.45;38.11
72798;BME280;61084;55.816;37.036;2023-08-06T12:02:10;99586.31;;;36.58;37.84
72798;BME280;61084;55.816;37.036;2023-08-06T12:05:05;99586.03;;;36.71;37.35
72798;BME280;61084;55.816;37.036;2023-08-06T12:07:39;99582.50;;;36.76;37.56
72798;BME280;61084;55.816;37.036;2023-08-06T12:10:06;99578.47;;;36.78;38.03
72798;BME280;61084;55.816;37.036;2023-08-06T12:12:32;99574.25;;;36.87;37.19
72798;BME280;61084;55.816;37.036;2023-08-06T12:14:58;99572.81;;;36.96;37.65
72798;BME280;61084;55.816;37.036;2023-08-06T12:17:24;99577.47;;;37.13;37.67
72798;BME280;61084;55.816;37.036;2023-08-06T12:19:50;99574.31;;;37.21;37.87
72798;BME280;61084;55.816;37.036;2023-08-06T12:22:16;99567.81;;;37.27;36.99
72798;BME280;61084;55.816;37.036;2023-08-06T12:24:43;99571.41;;;37.27;36.88
72798;BME280;61084;55.816;37.036;2023-08-06T12:27:09;99569.81;;;37.31;36.95
72798;BME280;61084;55.816;37.036;2023-08-06T12:29:39;99566.81;;;37.33;36.46
72798;BME280;61084;55.816;37.036;2023-08-06T12:32:06;99564.78;;;37.40;36.49
72798;BME280;61084;55.816;37.036;2023-08-06T12:34:32;99567.66;;;37.50;36.85
72798;BME280;61084;55.816;37.036;2023-08-06T12:36:57;99569.16;;;37.57;37.07
72798;BME280;61084;55.816;37.036;2023-08-06T12:39:23;99559.69;;;37.65;36.75
72798;BME280;61084;55.816;37.036;2023-08-06T12:41:49;99573.41;;;37.65;36.15
72798;BME280;61084;55.816;37.036;2023-08-06T12:44:15;99570.97;;;37.68;36.02
72798;BME280;61084;55.816;37.036;2023-08-06T12:46:41;99568.97;;;37.64;36.53
72798;BME280;61084;55.816;37.036;2023-08-06T12:49:07;99561.16;;;37.72;36.66
72798;BME280;61084;55.816;37.036;2023-08-06T12:51:33;99556.66;;;37.83;36.26
72798;BME280;61084;55.816;37.036;2023-08-06T12:54:01;99561.97;;;37.90;36.29
72798;BME280;61084;55.816;37.036;2023-08-06T12:56:26;99558.53;;;37.99;35.80
72798;BME280;61084;55.816;37.036;2023-08-06T12:58:52;99560.00;;;38.07;36.33
72798;BME280;61084;55.816;37.036;2023-08-06T13:01:18;99565.06;;;37.93;35.78